sensor_id;sensor_type;location;lat;lon;timestamp;temperature;humidity
18777;DHT22;9517;51.174;4.160;2024-03-22T00:01:48;12.80;99.90
18777;DHT22;9517;51.174;4.160;2024-03-22T00:04:16;12.80;99.90
18777;DHT22;9517;51.174;4.160;2024-03-22T00:06:46;12.70;99.90
18777;DHT22;9517;51.174;4.160;2024-03-22T00:09:13;12.70;99.90
18777;DHT22;9517;51.174;4.160;2024-03-22T00:11:41;12.70;99.90
18777;DHT22;9517;51.174;4.160;2024-03-22T00:14:08;12.70;99.90
18777;DHT22;9517;51.174;4.160;2024-03-22T00:16:35;12.70;99.90
18777;DHT22;9517;51.174;4.160;2024-03-22T00:19:02;12.70;99.90
18777;DHT22;9517;51.174;4.160;2024-03-22T00:21:29;12.70;99.90
18777;DHT22;9517;51.174;4.160;2024-03-22T00:23:57;12.70;99.90
18777;DHT22;9517;51.174;4.160;2024-03-22T00:26:24;12.70;99.90
18777;DHT22;9517;51.174;4.160;2024-03-22T00:28:51;12.70;99.90
18777;DHT22;9517;51.174;4.160;2024-03-22T00:31:18;12.70;99.90
18777;DHT22;9517;51.174;4.160;2024-03-22T00:33:44;12.70;99.90
18777;DHT22;9517;51.174;4.160;2024-03-22T00:36:12;12.60;99.90
18777;DHT22;9517;51.174;4.160;2024-03-22T00:38:38;12.60;99.90
18777;DHT22;9517;51.174;4.160;2024-03-22T00:41:06;12.60;99.90
18777;DHT22;9517;51.174;4.160;2024-03-22T00:43:32;12.60;99.90
18777;DHT22;9517;51.174;4.160;2024-03-22T00:45:59;12.50;99.90
18777;DHT22;9517;51.174;4.160;2024-03-22T00:48:27;12.40;99.90
18777;DHT22;9517;51.174;4.160;2024-03-22T00:50:54;12.30;99.90
18777;DHT22;9517;51.174;4.160;2024-03-22T00:53:20;12.30;99.90
18777;DHT22;9517;51.174;4.160;2024-03-22T00:55:47;12.30;99.90
18777;DHT22;9517;51.174;4.160;2024-03-22T00:58:18;12.30;99.90
18777;DHT22;9517;51.174;4.160;2024-03-22T01:00:46;12.30;99.90
18777;DHT22;9517;51.174;4.160;2024-03-22T01:03:12;12.30;99.90
18777;DHT22;9517;51.174;4.160;2024-03-22T01:05:42;12.20;99.90
18777;DHT22;9517;51.174;4.160;2024-03-22T01:08:08;12.20;99.90
18777;DHT22;9517;51.174;4.160;2024-03-22T01:10:35;12.20;99.90
18777;DHT22;9517;51.174;4.160;2024-03-22T01:13:02;12.10;99.90
18777;DHT22;9517;51.174;4.160;2024-03-22T01:15:31;12.10;99.90
18777;DHT22;9517;51.174;4.160;2024-03-22T01:17:57;12.10;99.90
18777;DHT22;9517;51.174;4.160;2024-03-22T01:20:24;12.10;99.90
18777;DHT22;9517;51.174;4.160;2024-03-22T01:22:50;12.10;99.90
18777;DHT22;9517;51.174;4.160;2024-03-22T01:25:17;12.00;99.90
18777;DHT22;9517;51.174;4.160;2024-03-22T01:27:44;12.00;99.90
18777;DHT22;9517;51.174;4.160;2024-03-22T01:30:11;12.00;99.90
18777;DHT22;9517;51.174;4.160;2024-03-22T01:32:39;12.00;99.90
18777;DHT22;9517;51.174;4.160;2024-03-22T01:35:07;12.00;99.90
18777;DHT22;9517;51.174;4.160;2024-03-22T01:37:33;12.00;99.90
18777;DHT22;9517;51.174;4.160;2024-03-22T01:40:00;11.90;99.90
18777;DHT22;9517;51.174;4.160;2024-03-22T01:42:26;11.80;99.90
18777;DHT22;9517;51.174;4.160;2024-03-22T01:44:53;11.80;99.90
18777;DHT22;9517;51.174;4.160;2024-03-22T01:47:19;11.80;99.90
18777;DHT22;9517;51.174;4.160;2024-03-22T01:49:49;11.90;99.90
18777;DHT22;9517;51.174;4.160;2024-03-22T01:52:16;11.90;99.90
18777;DHT22;9517;51.174;4.160;2024-03-22T01:54:43;11.90;99.90
18777;DHT22;9517;51.174;4.160;2024-03-22T01:57:09;11.80;99.90
18777;DHT22;9517;51.174;4.160;2024-03-22T01:59:37;11.80;99.90
18777;DHT22;9517;51.174;4.160;2024-03-22T02:02:03;11.80;99.90
18777;DHT22;9517;51.174;4.160;2024-03-22T02:04:30;11.80;99.90
18777;DHT22;9517;51.174;4.160;2024-03-22T02:06:58;11.80;99.90
18777;DHT22;9517;51.174;4.160;2024-03-22T02:09:25;11.80;99.90
18777;DHT22;9517;51.174;4.160;2024-03-22T02:11:52;11.70;99.90
18777;DHT22;9517;51.174;4.160;2024-03-22T02:14:19;11.70;99.90
18777;DHT22;9517;51.174;4.160;2024-03-22T02:16:45;11.60;99.90
18777;DHT22;9517;51.174;4.160;2024-03-22T02:19:12;11.60;99.90
18777;DHT22;9517;51.174;4.160;2024-03-22T02:21:38;11.60;99.90
18777;DHT22;9517;51.174;4.160;2024-03-22T02:24:07;11.60;99.90
18777;DHT22;9517;51.174;4.160;2024-03-22T02:26:33;11.40;99.90
18777;DHT22;9517;51.174;4.160;2024-03-22T02:29:00;11.30;99.90
18777;DHT22;9517;51.174;4.160;2024-03-22T02:31:26;11.30;99.90
18777;DHT22;9517;51.174;4.160;2024-03-22T02:33:53;11.20;99.90
18777;DHT22;9517;51.174;4.160;2024-03-22T02:36:19;11.20;99.90
18777;DHT22;9517;51.174;4.160;2024-03-22T02:38:46;11.20;99.90
18777;DHT22;9517;51.174;4.160;2024-03-22T02:41:14;11.10;99.90
18777;DHT22;9517;51.174;4.160;2024-03-22T02:43:41;11.10;99.90
18777;DHT22;9517;51.174;4.160;2024-03-22T02:46:07;11.10;99.90
18777;DHT22;9517;51.174;4.160;2024-03-22T02:48:34;11.10;99.90
18777;DHT22;9517;51.174;4.160;2024-03-22T02:51:00;11.10;99.90
18777;DHT22;9517;51.174;4.160;2024-03-22T02:53:28;11.10;99.90
18777;DHT22;9517;51.174;4.160;2024-03-22T02:55:54;11.00;99.90
18777;DHT22;9517;51.174;4.160;2024-03-22T02:58:22;10.90;99.90
18777;DHT22;9517;51.174;4.160;2024-03-22T03:00:48;11.00;99.90
18777;DHT22;9517;51.174;4.160;2024-03-22T03:03:16;10.90;99.90
18777;DHT22;9517;51.174;4.160;2024-03-22T03:05:42;10.90;99.90
18777;DHT22;9517;51.174;4.160;2024-03-22T03:08:09;10.90;99.90
18777;DHT22;9517;51.174;4.160;2024-03-22T03:10:35;10.90;99.90
18777;DHT22;9517;51.174;4.160;2024-03-22T03:13:03;10.90;99.90
18777;DHT22;9517;51.174;4.160;2024-03-22T03:15:30;10.90;99.90
18777;DHT22;9517;51.174;4.160;2024-03-22T03:17:57;10.90;99.90
18777;DHT22;9517;51.174;4.160;2024-03-22T03:20:24;10.80;99.90
18777;DHT22;9517;51.174;4.160;2024-03-22T03:22:52;10.80;99.90
18777;DHT22;9517;51.174;4.160;2024-03-22T03:25:18;10.80;99.90
18777;DHT22;9517;51.174;4.160;2024-03-22T03:27:45;10.80;99.90
18777;DHT22;9517;51.174;4.160;2024-03-22T03:30:11;10.80;99.90
18777;DHT22;9517;51.174;4.160;2024-03-22T03:32:40;10.70;99.90
18777;DHT22;9517;51.174;4.160;2024-03-22T03:35:06;10.70;99.90
18777;DHT22;9517;51.174;4.160;2024-03-22T03:37:33;10.70;99.90
18777;DHT22;9517;51.174;4.160;2024-03-22T03:39:59;10.70;99.90
18777;DHT22;9517;51.174;4.160;2024-03-22T03:42:26;10.70;99.90
18777;DHT22;9517;51.174;4.160;2024-03-22T03:44:52;10.70;99.90
18777;DHT22;9517;51.174;4.160;2024-03-22T03:47:19;10.70;99.90
18777;DHT22;9517;51.174;4.160;2024-03-22T03:49:47;10.70;99.90
18777;DHT22;9517;51.174;4.160;2024-03-22T03:52:14;10.70;99.90
18777;DHT22;9517;51.174;4.160;2024-03-22T03:54:40;10.70;99.90
18777;DHT22;9517;51.174;4.160;2024-03-22T03:57:07;10.70;99.90
18777;DHT22;9517;51.174;4.160;2024-03-22T03:59:33;10.70;99.90
18777;DHT22;9517;51.174;4.160;2024-03-22T04:02:00;10.70;99.90
18777;DHT22;9517;51.174;4.160;2024-03-22T04:04:26;10.70;99.90
18777;DHT22;9517;51.174;4.160;2024-03-22T04:06:55;10.70;99.90
18777;DHT22;9517;51.174;4.160;2024-03-22T04:09:21;10.80;99.90
18777;DHT22;9517;51.174;4.160;2024-03-22T04:11:48;10.70;99.90
18777;DHT22;9517;51.174;4.160;2024-03-22T04:14:14;10.80;99.90
18777;DHT22;9517;51.174;4.160;2024-03-22T04:16:41;10.70;99.90
18777;DHT22;9517;51.174;4.160;2024-03-22T04:19:07;10.80;99.90
18777;DHT22;9517;51.174;4.160;2024-03-22T04:21:34;10.80;99.90
18777;DHT22;9517;51.174;4.160;2024-03-22T04:24:02;10.90;99.90
18777;DHT22;9517;51.174;4.160;2024-03-22T04:26:29;10.90;99.90
18777;DHT22;9517;51.174;4.160;2024-03-22T04:28:55;10.80;99.90
18777;DHT22;9517;51.174;4.160;2024-03-22T04:31:22;10.70;99.90
18777;DHT22;9517;51.174;4.160;2024-03-22T04:33:48;10.70;99.90
18777;DHT22;9517;51.174;4.160;2024-03-22T04:36:15;10.70;99.90
18777;DHT22;9517;51.174;4.160;2024-03-22T04:38:42;10.80;99.90
18777;DHT22;9517;51.174;4.160;2024-03-22T04:41:10;10.80;99.90
18777;DHT22;9517;51.174;4.160;2024-03-22T04:43:37;10.70;99.90
18777;DHT22;9517;51.174;4.160;2024-03-22T04:46:05;10.70;99.90
18777;DHT22;9517;51.174;4.160;2024-03-22T04:48:32;10.70;99.90
18777;DHT22;9517;51.174;4.160;2024-03-22T04:50:58;10.70;99.90
18777;DHT22;9517;51.174;4.160;2024-03-22T04:53:25;10.70;99.90
18777;DHT22;9517;51.174;4.160;2024-03-22T04:55:51;10.60;99.90
18777;DHT22;9517;51.174;4.160;2024-03-22T04:58:20;10.60;99.90
18777;DHT22;9517;51.174;4.160;2024-03-22T05:00:48;10.60;99.90
18777;DHT22;9517;51.174;4.160;2024-03-22T05:03:18;10.60;99.90
18777;DHT22;9517;51.174;4.160;2024-03-22T05:05:44;10.60;99.90
18777;DHT22;9517;51.174;4.160;2024-03-22T05:08:11;10.60;99.90
18777;DHT22;9517;51.174;4.160;2024-03-22T05:10:37;10.60;99.90
18777;DHT22;9517;51.174;4.160;2024-03-22T05:13:04;10.60;99.90
18777;DHT22;9517;51.174;4.160;2024-03-22T05:15:32;10.70;99.90
18777;DHT22;9517;51.174;4.160;2024-03-22T05:17:59;10.60;99.90
18777;DHT22;9517;51.174;4.160;2024-03-22T05:20:25;10.60;99.90
18777;DHT22;9517;51.174;4.160;2024-03-22T05:22:52;10.60;99.90
18777;DHT22;9517;51.174;4.160;2024-03-22T05:25:19;10.60;99.90
18777;DHT22;9517;51.174;4.160;2024-03-22T05:27:46;10.60;99.90
18777;DHT22;9517;51.174;4.160;2024-03-22T05:30:13;10.70;99.90
18777;DHT22;9517;51.174;4.160;2024-03-22T05:33:11;10.70;99.90
18777;DHT22;9517;51.174;4.160;2024-03-22T05:35:38;10.70;99.90
18777;DHT22;9517;51.174;4.160;2024-03-22T05:38:09;10.70;99.90
18777;DHT22;9517;51.174;4.160;2024-03-22T05:40:36;10.60;99.90
18777;DHT22;9517;51.174;4.160;2024-03-22T05:43:04;10.60;99.90
18777;DHT22;9517;51.174;4.160;2024-03-22T05:45:30;10.70;99.90
18777;DHT22;9517;51.174;4.160;2024-03-22T05:47:57;10.70;99.90
18777;DHT22;9517;51.174;4.160;2024-03-22T05:50:25;10.70;99.90
18777;DHT22;9517;51.174;4.160;2024-03-22T05:52:54;10.70;99.90
18777;DHT22;9517;51.174;4.160;2024-03-22T05:55:21;10.70;99.90
18777;DHT22;9517;51.174;4.160;2024-03-22T05:57:47;10.70;99.90
18777;DHT22;9517;51.174;4.160;2024-03-22T06:01:56;10.70;99.90
18777;DHT22;9517;51.174;4.160;2024-03-22T06:04:05;10.70;99.90
18777;DHT22;9517;51.174;4.160;2024-03-22T06:10:36;10.70;99.90
18777;DHT22;9517;51.174;4.160;2024-03-22T06:13:12;10.70;99.90
18777;DHT22;9517;51.174;4.160;2024-03-22T06:15:38;10.70;99.90
18777;DHT22;9517;51.174;4.160;2024-03-22T06:18:05;10.70;99.90
18777;DHT22;9517;51.174;4.160;2024-03-22T06:20:31;10.70;99.90
18777;DHT22;9517;51.174;4.160;2024-03-22T06:23:06;10.80;99.90
18777;DHT22;9517;51.174;4.160;2024-03-22T06:25:34;10.90;99.90
18777;DHT22;9517;51.174;4.160;2024-03-22T06:28:01;10.90;99.90
18777;DHT22;9517;51.174;4.160;2024-03-22T06:30:27;10.90;99.90
18777;DHT22;9517;51.174;4.160;2024-03-22T06:32:54;10.90;99.90
18777;DHT22;9517;51.174;4.160;2024-03-22T06:35:20;10.90;99.90
18777;DHT22;9517;51.174;4.160;2024-03-22T06:37:47;10.90;99.90
18777;DHT22;9517;51.174;4.160;2024-03-22T06:40:14;10.90;99.90
18777;DHT22;9517;51.174;4.160;2024-03-22T06:42:43;10.90;99.90
18777;DHT22;9517;51.174;4.160;2024-03-22T06:45:09;10.80;99.90
18777;DHT22;9517;51.174;4.160;2024-03-22T06:47:36;10.70;99.90
18777;DHT22;9517;51.174;4.160;2024-03-22T06:50:02;10.70;99.90
18777;DHT22;9517;51.174;4.160;2024-03-22T06:52:29;10.80;99.90
18777;DHT22;9517;51.174;4.160;2024-03-22T06:54:55;10.80;99.90
18777;DHT22;9517;51.174;4.160;2024-03-22T06:57:22;10.80;99.90
18777;DHT22;9517;51.174;4.160;2024-03-22T06:59:50;10.90;99.90
18777;DHT22;9517;51.174;4.160;2024-03-22T07:02:17;10.90;99.90
18777;DHT22;9517;51.174;4.160;2024-03-22T07:04:44;11.00;99.90
18777;DHT22;9517;51.174;4.160;2024-03-22T07:07:11;11.10;99.90
18777;DHT22;9517;51.174;4.160;2024-03-22T07:09:37;11.10;99.90
18777;DHT22;9517;51.174;4.160;2024-03-22T07:12:05;11.10;99.90
18777;DHT22;9517;51.174;4.160;2024-03-22T07:14:31;11.10;99.90
18777;DHT22;9517;51.174;4.160;2024-03-22T07:16:59;11.10;99.90
18777;DHT22;9517;51.174;4.160;2024-03-22T07:19:26;11.20;99.90
18777;DHT22;9517;51.174;4.160;2024-03-22T07:21:54;11.30;99.90
18777;DHT22;9517;51.174;4.160;2024-03-22T07:24:20;11.20;99.90
18777;DHT22;9517;51.174;4.160;2024-03-22T07:26:49;11.10;99.90
18777;DHT22;9517;51.174;4.160;2024-03-22T07:29:18;11.20;99.90
18777;DHT22;9517;51.174;4.160;2024-03-22T07:31:45;11.20;99.90
18777;DHT22;9517;51.174;4.160;2024-03-22T07:34:13;11.20;99.90
18777;DHT22;9517;51.174;4.160;2024-03-22T07:36:40;11.20;99.90
18777;DHT22;9517;51.174;4.160;2024-03-22T07:39:06;11.30;99.90
18777;DHT22;9517;51.174;4.160;2024-03-22T07:41:33;11.40;99.90
18777;DHT22;9517;51.174;4.160;2024-03-22T07:43:59;11.50;99.90
18777;DHT22;9517;51.174;4.160;2024-03-22T07:46:27;11.50;99.90
18777;DHT22;9517;51.174;4.160;2024-03-22T07:48:53;11.60;99.90
18777;DHT22;9517;51.174;4.160;2024-03-22T07:51:21;11.60;99.90
18777;DHT22;9517;51.174;4.160;2024-03-22T07:53:47;11.60;99.90
18777;DHT22;9517;51.174;4.160;2024-03-22T07:56:14;11.70;99.90
18777;DHT22;9517;51.174;4.160;2024-03-22T07:58:41;11.70;99.90
18777;DHT22;9517;51.174;4.160;2024-03-22T08:01:08;11.70;99.90
18777;DHT22;9517;51.174;4.160;2024-03-22T08:03:34;11.80;99.90
18777;DHT22;9517;51.174;4.160;2024-03-22T08:06:01;11.90;99.90
18777;DHT22;9517;51.174;4.160;2024-03-22T08:08:29;11.90;99.90
18777;DHT22;9517;51.174;4.160;2024-03-22T08:10:56;12.00;99.90
18777;DHT22;9517;51.174;4.160;2024-03-22T08:13:22;11.90;99.90
18777;DHT22;9517;51.174;4.160;2024-03-22T08:15:49;11.90;99.90
18777;DHT22;9517;51.174;4.160;2024-03-22T08:18:16;12.00;99.90
18777;DHT22;9517;51.174;4.160;2024-03-22T08:20:43;12.10;99.90
18777;DHT22;9517;51.174;4.160;2024-03-22T08:23:09;12.10;99.90
18777;DHT22;9517;51.174;4.160;2024-03-22T08:25:38;12.20;99.90
18777;DHT22;9517;51.174;4.160;2024-03-22T08:28:04;12.20;99.90
18777;DHT22;9517;51.174;4.160;2024-03-22T08:30:31;12.30;99.90
18777;DHT22;9517;51.174;4.160;2024-03-22T08:32:57;12.40;99.90
18777;DHT22;9517;51.174;4.160;2024-03-22T08:35:24;12.40;99.90
18777;DHT22;9517;51.174;4.160;2024-03-22T08:37:50;12.40;99.90
18777;DHT22;9517;51.174;4.160;2024-03-22T08:40:17;12.30;99.90
18777;DHT22;9517;51.174;4.160;2024-03-22T08:42:44;12.10;99.90
18777;DHT22;9517;51.174;4.160;2024-03-22T08:45:11;12.10;99.90
18777;DHT22;9517;51.174;4.160;2024-03-22T08:47:37;12.10;99.90
18777;DHT22;9517;51.174;4.160;2024-03-22T08:50:06;12.20;99.90
18777;DHT22;9517;51.174;4.160;2024-03-22T08:52:32;12.20;99.90
18777;DHT22;9517;51.174;4.160;2024-03-22T08:55:01;12.10;99.90
18777;DHT22;9517;51.174;4.160;2024-03-22T08:57:27;12.00;99.90
18777;DHT22;9517;51.174;4.160;2024-03-22T08:59:56;12.10;99.90
18777;DHT22;9517;51.174;4.160;2024-03-22T09:02:21;12.20;99.90
18777;DHT22;9517;51.174;4.160;2024-03-22T09:04:48;12.10;99.90
18777;DHT22;9517;51.174;4.160;2024-03-22T09:07:15;12.00;99.90
18777;DHT22;9517;51.174;4.160;2024-03-22T09:09:42;12.00;99.90
18777;DHT22;9517;51.174;4.160;2024-03-22T09:12:08;12.00;99.90
18777;DHT22;9517;51.174;4.160;2024-03-22T09:14:35;12.10;99.90
18777;DHT22;9517;51.174;4.160;2024-03-22T09:17:03;12.10;99.90
18777;DHT22;9517;51.174;4.160;2024-03-22T09:19:30;12.10;99.90
18777;DHT22;9517;51.174;4.160;2024-03-22T09:21:56;12.30;99.90
18777;DHT22;9517;51.174;4.160;2024-03-22T09:24:22;12.20;99.90
18777;DHT22;9517;51.174;4.160;2024-03-22T09:26:48;12.10;99.90
18777;DHT22;9517;51.174;4.160;2024-03-22T09:29:15;12.00;99.90
18777;DHT22;9517;51.174;4.160;2024-03-22T09:31:41;12.00;99.90
18777;DHT22;9517;51.174;4.160;2024-03-22T09:34:11;12.00;99.90
18777;DHT22;9517;51.174;4.160;2024-03-22T09:36:37;12.10;99.90
18777;DHT22;9517;51.174;4.160;2024-03-22T09:39:05;12.10;99.90
18777;DHT22;9517;51.174;4.160;2024-03-22T09:41:32;12.00;99.90
18777;DHT22;9517;51.174;4.160;2024-03-22T09:46:42;12.00;99.90
18777;DHT22;9517;51.174;4.160;2024-03-22T09:49:12;12.10;99.90
18777;DHT22;9517;51.174;4.160;2024-03-22T09:51:39;12.20;99.90
18777;DHT22;9517;51.174;4.160;2024-03-22T09:54:07;12.20;99.90
18777;DHT22;9517;51.174;4.160;2024-03-22T09:56:34;12.20;99.90
18777;DHT22;9517;51.174;4.160;2024-03-22T09:59:02;12.30;99.90
18777;DHT22;9517;51.174;4.160;2024-03-22T10:01:29;12.30;99.90
18777;DHT22;9517;51.174;4.160;2024-03-22T10:03:56;12.40;99.90
18777;DHT22;9517;51.174;4.160;2024-03-22T10:06:23;12.50;99.90
18777;DHT22;9517;51.174;4.160;2024-03-22T10:08:50;12.50;99.90
18777;DHT22;9517;51.174;4.160;2024-03-22T10:11:16;12.50;99.90
18777;DHT22;9517;51.174;4.160;2024-03-22T10:13:44;12.50;99.90
18777;DHT22;9517;51.174;4.160;2024-03-22T10:16:10;12.50;99.90
18777;DHT22;9517;51.174;4.160;2024-03-22T10:18:37;12.40;99.90
18777;DHT22;9517;51.174;4.160;2024-03-22T10:21:04;12.30;99.90
18777;DHT22;9517;51.174;4.160;2024-03-22T10:23:33;12.20;99.90
18777;DHT22;9517;51.174;4.160;2024-03-22T10:26:00;12.10;99.90
18777;DHT22;9517;51.174;4.160;2024-03-22T10:28:27;12.10;99.90
18777;DHT22;9517;51.174;4.160;2024-03-22T10:30:53;12.10;99.90
18777;DHT22;9517;51.174;4.160;2024-03-22T10:33:21;12.10;99.90
18777;DHT22;9517;51.174;4.160;2024-03-22T10:35:52;12.00;99.90
18777;DHT22;9517;51.174;4.160;2024-03-22T10:38:19;12.00;99.90
18777;DHT22;9517;51.174;4.160;2024-03-22T10:40:48;11.90;99.90
18777;DHT22;9517;51.174;4.160;2024-03-22T10:43:16;11.90;99.90
18777;DHT22;9517;51.174;4.160;2024-03-22T10:45:42;11.70;99.90
18777;DHT22;9517;51.174;4.160;2024-03-22T10:48:10;11.80;99.90
18777;DHT22;9517;51.174;4.160;2024-03-22T10:50:39;11.80;99.90
18777;DHT22;9517;51.174;4.160;2024-03-22T10:53:11;11.90;99.90
18777;DHT22;9517;51.174;4.160;2024-03-22T10:55:42;12.00;99.90
18777;DHT22;9517;51.174;4.160;2024-03-22T10:58:16;11.90;99.90
18777;DHT22;9517;51.174;4.160;2024-03-22T11:00:42;11.90;99.90
18777;DHT22;9517;51.174;4.160;2024-03-22T11:03:10;11.90;99.90
18777;DHT22;9517;51.174;4.160;2024-03-22T11:05:45;12.00;99.90
18777;DHT22;9517;51.174;4.160;2024-03-22T11:08:12;12.00;99.90
18777;DHT22;9517;51.174;4.160;2024-03-22T11:10:39;12.10;99.90
18777;DHT22;9517;51.174;4.160;2024-03-22T11:13:08;12.00;99.90
18777;DHT22;9517;51.174;4.160;2024-03-22T11:15:36;12.00;99.90
18777;DHT22;9517;51.174;4.160;2024-03-22T11:18:03;11.80;99.90
18777;DHT22;9517;51.174;4.160;2024-03-22T11:20:32;11.80;99.90
18777;DHT22;9517;51.174;4.160;2024-03-22T11:23:04;11.80;99.90
18777;DHT22;9517;51.174;4.160;2024-03-22T11:25:31;11.70;99.90
18777;DHT22;9517;51.174;4.160;2024-03-22T11:27:59;11.80;99.90
18777;DHT22;9517;51.174;4.160;2024-03-22T11:30:26;11.80;99.90
18777;DHT22;9517;51.174;4.160;2024-03-22T11:32:55;11.90;99.90
18777;DHT22;9517;51.174;4.160;2024-03-22T11:35:22;12.00;99.90
18777;DHT22;9517;51.174;4.160;2024-03-22T11:37:50;11.90;99.90
18777;DHT22;9517;51.174;4.160;2024-03-22T11:40:16;11.90;99.90
18777;DHT22;9517;51.174;4.160;2024-03-22T11:42:46;12.00;99.90
18777;DHT22;9517;51.174;4.160;2024-03-22T11:45:14;12.10;99.90
18777;DHT22;9517;51.174;4.160;2024-03-22T11:47:41;12.20;99.90
18777;DHT22;9517;51.174;4.160;2024-03-22T11:50:11;12.20;99.90
18777;DHT22;9517;51.174;4.160;2024-03-22T11:52:40;12.10;99.90
18777;DHT22;9517;51.174;4.160;2024-03-22T11:55:06;12.10;99.90
18777;DHT22;9517;51.174;4.160;2024-03-22T11:57:34;12.00;99.90
18777;DHT22;9517;51.174;4.160;2024-03-22T12:00:00;12.10;99.90
18777;DHT22;9517;51.174;4.160;2024-03-22T12:02:31;12.30;99.90
18777;DHT22;9517;51.174;4.160;2024-03-22T12:04:57;12.20;99.90
18777;DHT22;9517;51.174;4.160;2024-03-22T12:07:25;12.10;99.90
18777;DHT22;9517;51.174;4.160;2024-03-22T12:09:51;12.10;99.90
18777;DHT22;9517;51.174;4.160;2024-03-22T12:12:22;12.10;99.90
18777;DHT22;9517;51.174;4.160;2024-03-22T12:14:48;12.10;99.90
18777;DHT22;9517;51.174;4.160;2024-03-22T12:17:17;12.00;99.90
18777;DHT22;9517;51.174;4.160;2024-03-22T12:19:43;12.00;99.90
18777;DHT22;9517;51.174;4.160;2024-03-22T12:22:10;11.90;99.90
18777;DHT22;9517;51.174;4.160;2024-03-22T12:24:37;11.80;99.90
18777;DHT22;9517;51.174;4.160;2024-03-22T12:27:04;11.80;99.90
18777;DHT22;9517;51.174;4.160;2024-03-22T12:29:32;11.90;99.90
18777;DHT22;9517;51.174;4.160;2024-03-22T12:32:00;11.80;99.90
18777;DHT22;9517;51.174;4.160;2024-03-22T12:34:27;11.70;99.90
18777;DHT22;9517;51.174;4.160;2024-03-22T12:36:55;11.70;99.90
18777;DHT22;9517;51.174;4.160;2024-03-22T12:39:21;11.60;99.90
18777;DHT22;9517;51.174;4.160;2024-03-22T12:41:49;11.60;99.90
18777;DHT22;9517;51.174;4.160;2024-03-22T12:44:15;11.50;99.90
18777;DHT22;9517;51.174;4.160;2024-03-22T12:46:42;11.50;99.90
18777;DHT22;9517;51.174;4.160;2024-03-22T12:49:10;11.60;99.90
18777;DHT22;9517;51.174;4.160;2024-03-22T12:51:37;11.60;99.90
18777;DHT22;9517;51.174;4.160;2024-03-22T12:54:03;11.60;99.90
18777;DHT22;9517;51.174;4.160;2024-03-22T12:56:31;11.50;99.90
18777;DHT22;9517;51.174;4.160;2024-03-22T12:58:58;11.50;99.90
18777;DHT22;9517;51.174;4.160;2024-03-22T13:01:26;11.60;99.90
18777;DHT22;9517;51.174;4.160;2024-03-22T13:03:52;11.60;99.90
18777;DHT22;9517;51.174;4.160;2024-03-22T13:06:19;11.60;99.90
18777;DHT22;9517;51.174;4.160;2024-03-22T13:08:45;11.50;99.90
18777;DHT22;9517;51.174;4.160;2024-03-22T13:11:12;11.50;99.90
18777;DHT22;9517;51.174;4.160;2024-03-22T13:13:39;11.40;99.90
18777;DHT22;9517;51.174;4.160;2024-03-22T13:16:08;11.50;99.90
18777;DHT22;9517;51.174;4.160;2024-03-22T13:18:37;11.40;99.90
18777;DHT22;9517;51.174;4.160;2024-03-22T13:21:04;11.30;99.90
18777;DHT22;9517;51.174;4.160;2024-03-22T13:23:30;11.30;99.90
18777;DHT22;9517;51.174;4.160;2024-03-22T13:26:03;11.20;99.90
18777;DHT22;9517;51.174;4.160;2024-03-22T13:28:29;11.30;99.90
18777;DHT22;9517;51.174;4.160;2024-03-22T13:31:01;11.30;99.90
18777;DHT22;9517;51.174;4.160;2024-03-22T13:33:30;11.30;99.90
18777;DHT22;9517;51.174;4.160;2024-03-22T13:35:57;11.20;99.90
18777;DHT22;9517;51.174;4.160;2024-03-22T13:38:24;11.20;99.90
18777;DHT22;9517;51.174;4.160;2024-03-22T13:40:55;11.10;99.90
18777;DHT22;9517;51.174;4.160;2024-03-22T13:43:21;11.30;99.90
18777;DHT22;9517;51.174;4.160;2024-03-22T13:45:50;11.30;99.90
18777;DHT22;9517;51.174;4.160;2024-03-22T13:48:20;11.30;99.90
18777;DHT22;9517;51.174;4.160;2024-03-22T13:50:51;11.30;99.90
18777;DHT22;9517;51.174;4.160;2024-03-22T13:53:17;11.30;99.90
18777;DHT22;9517;51.174;4.160;2024-03-22T13:55:45;11.30;99.90
18777;DHT22;9517;51.174;4.160;2024-03-22T13:58:12;11.40;99.90
18777;DHT22;9517;51.174;4.160;2024-03-22T14:00:39;11.30;99.90
18777;DHT22;9517;51.174;4.160;2024-03-22T14:03:05;11.30;99.90
18777;DHT22;9517;51.174;4.160;2024-03-22T14:05:32;11.30;99.90
18777;DHT22;9517;51.174;4.160;2024-03-22T14:08:00;11.20;99.90
18777;DHT22;9517;51.174;4.160;2024-03-22T14:10:29;11.10;99.90
18777;DHT22;9517;51.174;4.160;2024-03-22T14:12:56;10.90;99.90
18777;DHT22;9517;51.174;4.160;2024-03-22T14:15:24;10.80;99.90
18777;DHT22;9517;51.174;4.160;2024-03-22T14:17:50;10.80;99.90
18777;DHT22;9517;51.174;4.160;2024-03-22T14:20:17;10.90;99.90
18777;DHT22;9517;51.174;4.160;2024-03-22T14:22:44;10.90;99.90
18777;DHT22;9517;51.174;4.160;2024-03-22T14:25:14;10.90;99.90
18777;DHT22;9517;51.174;4.160;2024-03-22T14:27:40;10.90;99.90
18777;DHT22;9517;51.174;4.160;2024-03-22T14:30:10;10.90;99.90
18777;DHT22;9517;51.174;4.160;2024-03-22T14:32:38;11.00;99.90
18777;DHT22;9517;51.174;4.160;2024-03-22T14:35:06;11.10;99.90
18777;DHT22;9517;51.174;4.160;2024-03-22T14:37:32;11.00;99.90
18777;DHT22;9517;51.174;4.160;2024-03-22T14:39:59;10.90;99.90
18777;DHT22;9517;51.174;4.160;2024-03-22T14:42:27;10.90;99.90
18777;DHT22;9517;51.174;4.160;2024-03-22T14:44:54;10.70;99.90
18777;DHT22;9517;51.174;4.160;2024-03-22T14:47:22;10.80;99.90
18777;DHT22;9517;51.174;4.160;2024-03-22T14:49:49;10.80;99.90
18777;DHT22;9517;51.174;4.160;2024-03-22T14:52:15;10.90;99.90
18777;DHT22;9517;51.174;4.160;2024-03-22T14:54:42;10.90;99.90
18777;DHT22;9517;51.174;4.160;2024-03-22T14:57:08;10.90;99.90
18777;DHT22;9517;51.174;4.160;2024-03-22T14:59:38;10.90;99.90
18777;DHT22;9517;51.174;4.160;2024-03-22T15:02:04;11.00;99.90
18777;DHT22;9517;51.174;4.160;2024-03-22T15:04:35;11.00;99.90
18777;DHT22;9517;51.174;4.160;2024-03-22T15:07:01;11.10;99.90
18777;DHT22;9517;51.174;4.160;2024-03-22T15:09:28;11.10;99.90
18777;DHT22;9517;51.174;4.160;2024-03-22T15:11:54;11.00;99.90
18777;DHT22;9517;51.174;4.160;2024-03-22T15:14:24;11.00;99.90
18777;DHT22;9517;51.174;4.160;2024-03-22T15:16:52;11.00;99.90
18777;DHT22;9517;51.174;4.160;2024-03-22T15:19:19;10.90;99.90
18777;DHT22;9517;51.174;4.160;2024-03-22T15:21:45;10.90;99.90
18777;DHT22;9517;51.174;4.160;2024-03-22T15:24:13;10.90;99.90
18777;DHT22;9517;51.174;4.160;2024-03-22T15:26:39;11.00;99.90
18777;DHT22;9517;51.174;4.160;2024-03-22T15:29:07;11.00;99.90
18777;DHT22;9517;51.174;4.160;2024-03-22T15:31:33;11.00;99.90
18777;DHT22;9517;51.174;4.160;2024-03-22T15:34:03;11.00;99.90
18777;DHT22;9517;51.174;4.160;2024-03-22T15:36:31;11.00;99.90
18777;DHT22;9517;51.174;4.160;2024-03-22T15:38:58;11.00;99.90
18777;DHT22;9517;51.174;4.160;2024-03-22T15:41:24;10.90;99.90
18777;DHT22;9517;51.174;4.160;2024-03-22T15:43:51;10.90;99.90
18777;DHT22;9517;51.174;4.160;2024-03-22T15:46:18;10.90;99.90
18777;DHT22;9517;51.174;4.160;2024-03-22T15:48:45;10.90;99.90
18777;DHT22;9517;51.174;4.160;2024-03-22T15:51:13;10.90;99.90
18777;DHT22;9517;51.174;4.160;2024-03-22T15:53:40;10.90;99.90